Time;durP1;ratioP1;P1;durP2;ratioP2;P2;SDS_P1;SDS_P2;PMS_P1;PMS_P2;Temp;Humidity;BMP_temperature;BMP_pressure;BME280_temperature;BME280_humidity;BME280_pressure;Samples;Min_cycle;Max_cycle;Signal;HPM_P1;HPM_P2
2021/10/24 00:01:28;;;;;;;11.07;6.80;;;0.60;99.90;;;0.88;100.00;96021.00;2457564;55;26112;-57
2021/10/24 00:04:15;;;;;;;9.03;5.50;;;0.60;99.90;;;0.92;100.00;96025.00;2234669;57;26625;-57
2021/10/24 00:07:01;;;;;;;8.77;5.80;;;0.60;99.90;;;0.94;100.00;96021.00;2452780;55;26636;-56
2021/10/24 00:09:49;;;;;;;7.47;5.57;;;0.60;99.90;;;0.96;100.00;96019.00;2239875;55;26780;-56
2021/10/24 00:12:36;;;;;;;8.40;5.23;;;0.70;99.90;;;1.05;100.00;96014.00;2463176;55;26750;-55
2021/10/24 00:15:22;;;;;;;12.70;6.60;;;0.60;99.90;;;0.94;100.00;96020.00;2239832;55;26229;-57
2021/10/24 00:18:09;;;;;;;7.40;5.77;;;0.50;99.90;;;0.89;100.00;96013.00;2462360;55;26608;-57
2021/10/24 00:20:57;;;;;;;9.53;5.27;;;0.50;99.90;;;0.84;100.00;96024.00;2238615;55;26169;-56
2021/10/24 00:23:44;;;;;;;9.00;6.40;;;0.50;99.90;;;0.79;100.00;96016.00;2463057;55;26627;-57
2021/10/24 00:26:30;;;;;;;8.90;5.37;;;0.50;99.90;;;0.82;100.00;96021.00;2249082;57;26145;-55
2021/10/24 00:29:17;;;;;;;7.90;5.77;;;0.50;99.90;;;0.86;100.00;96017.00;2238419;57;26618;-56
2021/10/24 00:32:05;;;;;;;9.63;5.87;;;0.50;99.90;;;0.80;100.00;96013.00;2461783;56;26105;-57
2021/10/24 00:34:51;;;;;;;12.77;5.90;;;0.50;99.90;;;0.73;100.00;96015.00;2239097;56;26559;-56
2021/10/24 00:37:37;;;;;;;9.30;5.47;;;0.40;99.90;;;0.66;100.00;96016.00;2463335;56;26143;-56
2021/10/24 00:40:24;;;;;;;11.07;6.07;;;0.40;99.90;;;0.65;100.00;96009.00;2239787;57;26571;-57
2021/10/24 00:43:10;;;;;;;9.97;5.43;;;0.30;99.90;;;0.65;100.00;96011.00;2463321;55;26163;-57
2021/10/24 00:45:57;;;;;;;10.13;5.73;;;0.30;99.90;;;0.65;100.00;96009.00;2239801;56;26125;-56
2021/10/24 00:48:43;;;;;;;9.17;6.13;;;0.30;99.90;;;0.59;100.00;96009.00;2463168;55;25489;-57
2021/10/24 00:51:30;;;;;;;9.93;6.30;;;0.30;99.90;;;0.63;100.00;96005.00;2239629;57;26084;-56
2021/10/24 00:54:18;;;;;;;8.40;5.70;;;0.30;99.90;;;0.62;100.00;96006.00;2238624;57;26155;-57
2021/10/24 00:57:05;;;;;;;10.23;6.27;;;0.30;99.90;;;0.57;100.00;95991.00;2462236;56;26251;-56
2021/10/24 00:59:51;;;;;;;11.07;5.80;;;0.30;99.90;;;0.62;100.00;95983.00;2237629;56;26120;-56
2021/10/24 01:02:38;;;;;;;10.13;5.53;;;0.30;99.90;;;0.52;100.00;95983.00;2237337;56;26139;-57
2021/10/24 01:05:25;;;;;;;9.23;5.53;;;0.20;99.90;;;0.51;100.00;95973.00;2237706;56;26096;-57
2021/10/24 01:08:14;;;;;;;8.93;5.67;;;0.20;99.90;;;0.49;100.00;95983.00;2237149;56;26203;-57
2021/10/24 01:11:01;;;;;;;11.63;5.37;;;0.20;99.90;;;0.52;100.00;95980.00;2237811;56;26099;-57
2021/10/24 01:13:48;;;;;;;8.17;5.83;;;0.30;99.90;;;0.63;100.00;95970.00;2237367;56;26124;-56
2021/10/24 01:16:37;;;;;;;9.90;5.57;;;0.30;99.90;;;0.55;100.00;95970.00;2237135;56;26100;-56
2021/10/24 01:19:24;;;;;;;9.40;5.57;;;0.20;99.90;;;0.52;100.00;95967.00;2461698;56;26183;-57
2021/10/24 01:22:10;;;;;;;10.20;5.70;;;0.20;99.90;;;0.53;100.00;95972.00;2238921;56;26155;-57
2021/10/24 01:24:57;;;;;;;6.90;5.07;;;0.20;99.90;;;0.55;100.00;95961.00;2237598;56;26124;-56
2021/10/24 01:27:45;;;;;;;9.40;6.37;;;0.20;99.90;;;0.62;100.00;95965.00;2237284;56;26115;-56
2021/10/24 01:30:31;;;;;;;9.90;5.77;;;0.20;99.90;;;0.58;100.00;95948.00;2238812;56;26597;-56
2021/10/24 01:33:17;;;;;;;9.43;6.53;;;0.30;99.90;;;0.72;100.00;95958.00;2238625;56;26104;-56
2021/10/24 01:36:08;;;;;;;8.57;5.30;;;0.20;99.90;;;0.50;100.00;95957.00;2237960;56;26092;-55
2021/10/24 01:38:54;;;;;;;7.97;5.80;;;0.20;99.90;;;0.47;100.00;95954.00;2238513;56;25553;-56
2021/10/24 01:41:41;;;;;;;7.17;5.50;;;0.10;99.90;;;0.41;100.00;95952.00;2238912;56;26702;-56
2021/10/24 01:44:27;;;;;;;8.07;6.07;;;0.10;99.90;;;0.48;100.00;95951.00;2462170;56;26064;-56
2021/10/24 01:47:14;;;;;;;8.93;6.00;;;0.10;99.90;;;0.40;100.00;95953.00;2238729;56;26115;-55
2021/10/24 01:50:00;;;;;;;8.03;5.80;;;0.10;99.90;;;0.44;100.00;95943.00;2461997;56;26515;-56
2021/10/24 01:52:47;;;;;;;9.30;5.23;;;0.00;99.90;;;0.36;100.00;95944.00;2238816;56;26083;-56
2021/10/24 01:55:34;;;;;;;11.67;6.20;;;0.10;99.90;;;0.35;100.00;95939.00;2461935;56;26542;-56
2021/10/24 02:01:19;;;;;;;8.37;5.03;;;0.00;99.90;;;0.42;100.00;95928.00;2495958;54;33061;-56
2021/10/24 02:04:06;;;;;;;6.73;5.33;;;0.00;99.90;;;0.37;100.00;95930.00;2230530;56;26285;-57
2021/10/24 02:06:53;;;;;;;5.77;4.83;;;0.00;99.90;;;0.40;100.00;95939.00;2236925;56;26625;-56
2021/10/24 02:09:39;;;;;;;7.07;4.90;;;0.10;99.90;;;0.39;100.00;95935.00;2238093;57;26629;-56
2021/10/24 02:12:26;;;;;;;9.60;5.10;;;0.10;99.90;;;0.39;100.00;95935.00;2236389;55;26630;-56
2021/10/24 02:15:13;;;;;;;7.97;5.37;;;0.10;99.90;;;0.52;100.00;95925.00;2428673;56;26215;-56
2021/10/24 02:18:00;;;;;;;5.93;4.80;;;0.10;99.90;;;0.58;100.00;95932.00;2455514;55;26136;-54
2021/10/24 02:20:47;;;;;;;8.10;5.07;;;0.20;99.90;;;0.61;100.00;95929.00;2452066;55;26126;-55
2021/10/24 02:23:33;;;;;;;7.23;4.83;;;0.20;99.90;;;0.57;100.00;95926.00;2232255;56;26079;-54
2021/10/24 02:26:20;;;;;;;6.40;4.73;;;0.20;99.90;;;0.58;100.00;95924.00;2453693;56;26094;-54
2021/10/24 02:29:06;;;;;;;7.33;4.97;;;0.10;99.90;;;0.42;100.00;95915.00;2231506;58;26112;-54
2021/10/24 02:31:53;;;;;;;7.83;5.17;;;0.10;99.90;;;0.36;100.00;95918.00;2453656;56;26167;-54
2021/10/24 02:34:39;;;;;;;8.73;5.30;;;0.00;99.90;;;0.33;100.00;95915.00;2231203;58;26128;-54
2021/10/24 02:37:26;;;;;;;8.53;5.07;;;0.00;99.90;;;0.31;100.00;95922.00;2453666;56;26075;-57
2021/10/24 02:40:14;;;;;;;6.90;5.20;;;-0.10;99.90;;;0.33;100.00;95920.00;2232031;58;26143;-54
2021/10/24 02:43:01;;;;;;;8.13;5.07;;;-0.10;99.90;;;0.37;100.00;95919.00;2453976;56;26079;-55
2021/10/24 02:45:47;;;;;;;9.23;5.60;;;-0.10;99.90;;;0.23;100.00;95919.00;2234151;57;26594;-54
2021/10/24 02:48:34;;;;;;;6.17;4.97;;;-0.10;99.90;;;0.16;100.00;95918.00;2239827;56;26163;-54
2021/10/24 02:51:20;;;;;;;8.17;5.50;;;-0.10;99.90;;;0.18;100.00;95911.00;2462956;56;26076;-54
2021/10/24 02:54:07;;;;;;;8.73;5.40;;;-0.20;99.90;;;0.23;100.00;95917.00;2238983;56;26175;-54
2021/10/24 02:56:54;;;;;;;6.03;4.50;;;-0.10;99.90;;;0.33;100.00;95908.00;2239086;58;26585;-54
2021/10/24 02:59:40;;;;;;;6.30;5.10;;;-0.20;99.90;;;0.17;100.00;95906.00;2238580;57;26255;-54
2021/10/24 03:02:27;;;;;;;6.33;4.60;;;-0.20;99.90;;;0.26;100.00;95900.00;2467421;55;26122;-54
2021/10/24 03:05:13;;;;;;;6.37;4.80;;;-0.10;99.90;;;0.21;100.00;95901.00;2241265;57;26110;-54
2021/10/24 03:08:00;;;;;;;8.00;5.20;;;-0.20;99.90;;;0.10;100.00;95903.00;2479395;55;26118;-55
2021/10/24 03:10:47;;;;;;;6.83;4.70;;;-0.20;99.90;;;0.09;100.00;95901.00;2216298;56;26129;-54
2021/10/24 03:13:33;;;;;;;7.90;4.87;;;-0.30;99.90;;;0.09;100.00;95891.00;2204345;57;26174;-54
2021/10/24 03:16:20;;;;;;;6.00;4.83;;;-0.30;99.90;;;0.14;100.00;95901.00;2201479;56;26481;-54
2021/10/24 03:19:07;;;;;;;7.87;4.57;;;-0.20;99.90;;;0.21;100.00;95902.00;2202174;56;26683;-54
2021/10/24 03:21:54;;;;;;;8.57;5.00;;;-0.30;99.90;;;0.07;100.00;95907.00;2213331;56;26325;-55
2021/10/24 03:24:40;;;;;;;6.30;4.80;;;-0.30;99.90;;;0.10;100.00;95906.00;2213267;56;26496;-55
2021/10/24 03:27:27;;;;;;;8.87;5.77;;;-0.20;99.90;;;0.16;100.00;95908.00;2213470;56;26221;-54
2021/10/24 03:30:14;;;;;;;9.53;5.70;;;-0.30;99.90;;;0.10;100.00;95906.00;2213631;56;26231;-53
2021/10/24 03:33:00;;;;;;;8.87;5.80;;;-0.40;99.90;;;-0.06;100.00;95898.00;2213395;56;26506;-54
2021/10/24 03:35:47;;;;;;;10.47;6.23;;;-0.40;99.90;;;-0.01;100.00;95903.00;2203922;56;26119;-54
2021/10/24 03:38:34;;;;;;;10.70;6.80;;;-0.40;99.90;;;-0.04;100.00;95906.00;2215258;56;26134;-55
2021/10/24 03:41:20;;;;;;;8.70;5.63;;;-0.40;99.90;;;0.02;100.00;95905.00;2434445;56;26077;-54
2021/10/24 03:44:07;;;;;;;8.70;5.67;;;-0.40;99.90;;;0.07;100.00;95910.00;2215757;56;26163;-54
2021/10/24 03:46:53;;;;;;;8.47;5.70;;;-0.40;99.90;;;0.03;100.00;95902.00;2434763;56;26548;-54
2021/10/24 03:49:40;;;;;;;7.10;5.27;;;-0.40;99.90;;;0.09;100.00;95901.00;2215461;56;26143;-54
2021/10/24 03:52:27;;;;;;;10.27;5.53;;;-0.40;99.90;;;-0.02;100.00;95905.00;2434491;56;26099;-55
2021/10/24 03:55:14;;;;;;;7.33;5.30;;;-0.40;99.90;;;-0.11;100.00;95907.00;2215718;56;26135;-55
2021/10/24 03:58:00;;;;;;;7.77;5.27;;;-0.50;99.90;;;-0.14;100.00;95899.00;2434513;56;26254;-55
2021/10/24 04:00:47;;;;;;;6.70;4.57;;;-0.60;99.90;;;-0.32;100.00;95896.00;2215778;56;26120;-54
2021/10/24 04:03:34;;;;;;;11.20;4.70;;;-0.70;99.90;;;-0.47;100.00;95899.00;2214767;56;26146;-54
2021/10/24 04:06:20;;;;;;;7.53;4.90;;;-0.70;99.90;;;-0.35;100.00;95906.00;2433717;56;26338;-54
2021/10/24 04:09:07;;;;;;;7.57;5.27;;;-0.70;99.90;;;-0.38;100.00;95903.00;2214007;56;26155;-55
2021/10/24 04:11:54;;;;;;;7.93;5.13;;;-0.80;99.90;;;-0.43;100.00;95905.00;2214474;56;25732;-54
2021/10/24 04:14:41;;;;;;;8.60;5.23;;;-0.80;99.90;;;-0.45;100.00;95907.00;2213729;56;26229;-54
2021/10/24 04:17:28;;;;;;;5.93;4.80;;;-0.80;99.90;;;-0.41;100.00;95907.00;2213685;56;26154;-54
2021/10/24 04:23:13;;;;;;;8.37;5.57;;;-0.80;99.90;;;-0.17;100.00;95894.00;2216048;55;33873;-54
2021/10/24 04:26:00;;;;;;;6.63;4.83;;;-0.80;99.90;;;-0.46;100.00;95904.00;2433049;56;26199;-55
2021/10/24 04:28:46;;;;;;;6.07;4.80;;;-0.80;99.90;;;-0.49;100.00;95899.00;2448250;55;26204;-55
2021/10/24 04:31:33;;;;;;;9.87;5.73;;;-0.80;99.90;;;-0.46;100.00;95901.00;2233248;55;26177;-55
2021/10/24 04:34:20;;;;;;;9.33;5.80;;;-0.90;99.90;;;-0.60;100.00;95897.00;2214732;58;26755;-54
2021/10/24 04:40:07;;;;;;;8.43;6.27;;;-1.10;99.90;;;-0.67;100.00;95892.00;2242174;55;31879;-54
2021/10/24 04:42:53;;;;;;;9.20;6.30;;;-1.00;99.90;;;-0.60;100.00;95893.00;2260068;56;26186;-55
2021/10/24 04:45:40;;;;;;;7.07;5.63;;;-1.00;99.90;;;-0.58;100.00;95904.00;2259997;56;26707;-54
2021/10/24 04:48:27;;;;;;;6.70;4.80;;;-0.90;99.90;;;-0.50;100.00;95896.00;2259053;56;26146;-54
2021/10/24 04:51:15;;;;;;;7.43;5.23;;;-0.90;99.90;;;-0.61;100.00;95895.00;2245206;56;26243;-54
2021/10/24 04:54:01;;;;;;;6.60;5.23;;;-1.00;99.90;;;-0.76;100.00;95891.00;2253879;56;26110;-54
2021/10/24 04:56:48;;;;;;;9.30;5.27;;;-1.20;99.90;;;-0.94;100.00;95893.00;2260441;57;26151;-54
2021/10/24 04:59:34;;;;;;;7.17;4.63;;;-1.20;99.90;;;-0.84;100.00;95890.00;2261033;55;26085;-54
2021/10/24 05:02:21;;;;;;;7.43;5.03;;;-1.20;99.90;;;-0.84;100.00;95883.00;2467368;55;26492;-54
2021/10/24 05:05:09;;;;;;;9.53;5.23;;;-1.30;99.90;;;-1.06;100.00;95877.00;2260933;55;26137;-55
2021/10/24 05:07:56;;;;;;;8.93;5.40;;;-1.40;99.90;;;-1.19;100.00;95874.00;2266550;55;26215;-53
2021/10/24 05:10:43;;;;;;;7.83;4.80;;;-1.40;99.90;;;-1.26;100.00;95875.00;2495791;55;26133;-54
2021/10/24 05:13:29;;;;;;;9.83;5.40;;;-1.40;99.90;;;-0.95;100.00;95875.00;2265764;55;26149;-54
2021/10/24 05:16:16;;;;;;;9.03;5.10;;;-1.30;99.90;;;-0.89;100.00;95869.00;2495581;55;26129;-55
2021/10/24 05:19:03;;;;;;;7.73;5.20;;;-1.40;99.90;;;-1.15;100.00;95867.00;2266138;55;26109;-55
2021/10/24 05:21:50;;;;;;;6.10;4.93;;;-1.30;99.90;;;-0.85;100.00;95859.00;2495670;55;26723;-53
2021/10/24 05:24:36;;;;;;;6.77;5.10;;;-1.40;99.90;;;-0.84;100.00;95862.00;2266086;55;26690;-55
2021/10/24 05:27:23;;;;;;;5.97;4.80;;;-1.40;99.90;;;-0.98;100.00;95864.00;2495850;55;26085;-54
2021/10/24 05:33:07;;;;;;;6.93;4.77;;;-1.60;99.90;;;-1.09;100.00;95859.00;2206956;56;33446;-54
2021/10/24 05:35:54;;;;;;;5.50;4.10;;;-1.50;99.90;;;-0.97;100.00;95861.00;2205612;56;26669;-54
2021/10/24 05:38:41;;;;;;;6.27;4.23;;;-1.50;99.90;;;-1.14;100.00;95859.00;2213144;56;26572;-55
2021/10/24 05:44:24;;;;;;;7.33;4.80;;;-1.50;99.90;;;-0.99;100.00;95847.00;2242522;56;33362;-54
2021/10/24 05:47:11;;;;;;;6.17;4.67;;;-1.60;99.90;;;-1.26;100.00;95857.00;2474331;55;26566;-54
2021/10/24 05:49:58;;;;;;;8.37;5.17;;;-1.70;99.90;;;-1.47;100.00;95861.00;2446380;55;26139;-54
2021/10/24 05:55:41;;;;;;;7.30;5.10;;;-1.90;99.90;;;-1.62;100.00;95858.00;2216670;57;33469;-54
2021/10/24 05:58:28;;;;;;;6.87;4.87;;;-1.90;99.90;;;-1.73;100.00;95874.00;2218015;55;26211;-54
2021/10/24 06:01:14;;;;;;;8.80;5.93;;;-1.90;99.90;;;-1.51;100.00;95869.00;2208927;55;26163;-54
2021/10/24 06:04:01;;;;;;;7.10;4.97;;;-1.80;99.90;;;-1.31;100.00;95862.00;2380211;56;26205;-54
2021/10/24 06:06:48;;;;;;;9.63;5.17;;;-1.70;99.90;;;-1.28;100.00;95856.00;2375484;56;26247;-54
2021/10/24 06:09:41;;;;;;;6.67;5.47;;;-1.80;99.90;;;-1.50;100.00;95869.00;2160531;58;26179;-54
2021/10/24 06:12:42;;;;;;;10.67;5.50;;;-1.90;99.90;;;-1.64;100.00;95869.00;2413047;56;26235;-55
2021/10/24 06:15:29;;;;;;;6.90;5.93;;;-1.90;99.90;;;-1.70;100.00;95873.00;2432876;56;26204;-54
2021/10/24 06:18:16;;;;;;;10.00;6.37;;;-1.90;99.90;;;-1.63;100.00;95882.00;2200985;56;26661;-55
2021/10/24 06:21:03;;;;;;;8.00;5.43;;;-1.90;99.90;;;-1.64;100.00;95878.00;2191653;56;26141;-55
2021/10/24 06:23:49;;;;;;;11.87;7.20;;;-1.80;99.90;;;-1.35;100.00;95878.00;2404252;56;26177;-54
2021/10/24 06:26:36;;;;;;;12.20;10.43;;;-1.70;99.90;;;-1.22;100.00;95879.00;2190807;56;26168;-54
2021/10/24 06:29:22;;;;;;;14.80;11.33;;;-1.60;99.90;;;-1.19;100.00;95877.00;2404412;56;26640;-54
2021/10/24 06:32:09;;;;;;;9.73;8.20;;;-1.50;99.90;;;-1.10;100.00;95883.00;2191026;56;26138;-54
2021/10/24 06:34:55;;;;;;;10.67;7.30;;;-1.40;99.90;;;-0.97;100.00;95882.00;2404131;56;26650;-55
2021/10/24 06:40:40;;;;;;;7.03;5.40;;;-1.30;99.90;;;-0.71;100.00;95889.00;2252191;54;33844;-54
2021/10/24 06:43:27;;;;;;;7.80;4.93;;;-1.30;99.90;;;-0.86;100.00;95899.00;2482158;54;26095;-56
2021/10/24 06:46:13;;;;;;;10.07;5.70;;;-1.30;99.90;;;-0.94;100.00;95891.00;2470772;54;26203;-55
2021/10/24 06:49:00;;;;;;;7.10;5.20;;;-1.30;99.90;;;-0.94;100.00;95894.00;2242409;55;26198;-54
2021/10/24 06:51:46;;;;;;;6.70;5.13;;;-1.20;99.90;;;-0.86;100.00;95899.00;2490017;55;26228;-55
2021/10/24 06:57:29;;;;;;;7.33;6.10;;;-1.10;99.90;;;-0.16;100.00;95879.00;2303061;55;32634;-54
2021/10/24 07:00:19;;;;;;;9.33;6.57;;;-0.40;99.90;;;0.35;100.00;95892.00;2339225;55;25861;-55
2021/10/24 07:03:05;;;;;;;11.27;7.10;;;0.00;99.90;;;0.85;100.00;95899.00;2528693;53;26564;-55
2021/10/24 07:05:52;;;;;;;8.33;6.53;;;0.40;99.90;;;1.30;100.00;95893.00;2282465;55;26073;-54
2021/10/24 07:08:38;;;;;;;8.03;6.10;;;0.90;99.90;;;1.88;100.00;95901.00;2287261;55;26526;-55
2021/10/24 07:11:25;;;;;;;7.93;6.10;;;1.30;99.90;;;2.41;100.00;95897.00;2522380;54;26135;-54
2021/10/24 07:14:11;;;;;;;7.70;5.63;;;1.60;99.90;;;2.65;100.00;95895.00;2269903;55;26104;-55
2021/10/24 07:16:57;;;;;;;7.50;5.33;;;1.80;99.90;;;2.78;100.00;95899.00;2488918;54;26076;-55
2021/10/24 07:19:44;;;;;;;5.80;5.20;;;2.20;99.90;;;3.32;100.00;95899.00;2260598;56;26168;-55
2021/10/24 07:22:30;;;;;;;5.50;5.00;;;2.70;99.90;;;3.64;100.00;95900.00;2488713;54;26619;-55
2021/10/24 07:28:14;;;;;;;6.07;4.70;;;2.90;99.90;;;3.95;100.00;95879.00;2276329;54;33733;-54
2021/10/24 07:31:00;;;;;;;7.87;4.67;;;3.00;99.90;;;3.85;100.00;95889.00;2283762;56;26270;-54
2021/10/24 07:33:47;;;;;;;5.73;4.47;;;3.10;99.90;;;3.89;100.00;95892.00;2268952;56;26221;-55
2021/10/24 07:36:34;;;;;;;6.03;4.10;;;3.20;99.90;;;4.00;100.00;95897.00;2286936;54;26634;-54
2021/10/24 07:39:21;;;;;;;6.77;4.57;;;3.30;99.90;;;4.30;100.00;95899.00;2284935;56;26180;-54
2021/10/24 07:42:08;;;;;;;5.80;4.30;;;3.30;99.90;;;4.22;100.00;95891.00;2286444;56;26204;-55
2021/10/24 07:44:55;;;;;;;5.23;4.33;;;3.30;99.90;;;4.10;100.00;95895.00;2287185;56;26121;-55
2021/10/24 07:47:42;;;;;;;6.60;4.33;;;3.30;99.90;;;3.98;100.00;95891.00;2521240;55;26133;-55
2021/10/24 07:50:30;;;;;;;5.63;4.23;;;3.30;99.90;;;3.99;100.00;95893.00;2287677;56;26189;-55
2021/10/24 07:53:17;;;;;;;5.63;4.00;;;3.30;99.90;;;3.91;100.00;95890.00;2521073;55;26137;-54
2021/10/24 07:56:03;;;;;;;7.63;5.20;;;3.20;99.90;;;3.70;100.00;95892.00;2287575;56;26188;-55
2021/10/24 07:58:50;;;;;;;7.67;4.90;;;3.20;99.90;;;3.65;100.00;95900.00;2519817;55;26180;-55
2021/10/24 08:04:35;;;;;;;10.87;7.30;;;3.40;99.90;;;4.07;100.00;95897.00;2199916;55;33816;-55
2021/10/24 08:07:22;;;;;;;5.87;5.03;;;3.50;99.90;;;4.11;100.00;95907.00;2428190;56;26134;-54
2021/10/24 08:10:09;;;;;;;7.60;5.20;;;3.70;99.90;;;4.29;100.00;95905.00;2433915;56;26604;-55
2021/10/24 08:12:56;;;;;;;6.63;4.87;;;3.80;99.90;;;4.37;100.00;95898.00;2214097;56;26454;-55
2021/10/24 08:15:42;;;;;;;6.93;4.40;;;4.10;99.90;;;5.08;100.00;95903.00;2213904;58;26177;-56
2021/10/24 08:18:29;;;;;;;8.03;3.67;;;5.40;99.90;;;7.82;100.00;95898.00;2212454;56;26197;-56
2021/10/24 08:21:16;;;;;;;5.07;3.13;;;7.80;99.90;;;11.68;100.00;95890.00;2211574;58;26173;-56
2021/10/24 08:24:03;;;;;;;3.70;2.95;;;10.50;99.90;;;15.10;100.00;95875.00;2212372;58;26148;-55
2021/10/24 08:26:50;;;;;;;5.03;2.70;;;12.40;99.90;;;17.19;100.00;95877.00;2213359;56;26703;-56
2021/10/24 08:32:35;;;;;;;3.25;2.95;;;14.80;99.90;;;18.81;81.05;95882.00;2249942;56;33139;-56
2021/10/24 08:35:23;;;;;;;4.53;2.80;;;15.20;99.90;;;20.25;84.60;95882.00;2232581;56;26684;-56
2021/10/24 08:38:10;;;;;;;3.58;2.62;;;15.80;99.90;;;20.42;66.20;95885.00;2220831;56;26209;-56
2021/10/24 08:41:00;;;;;;;4.15;2.72;;;16.10;99.90;;;21.10;68.92;95886.00;2242927;56;27016;-56
2021/10/24 08:43:49;;;;;;;3.33;2.60;;;16.40;99.90;;;21.71;58.33;95889.00;2472110;55;26696;-55
2021/10/24 08:46:38;;;;;;;5.82;2.78;;;17.40;99.90;;;23.34;56.08;95893.00;2250973;56;26169;-56
2021/10/24 08:49:24;;;;;;;2.80;2.33;;;17.50;99.90;;;23.02;50.37;95883.00;2494093;55;25131;-56
2021/10/24 08:55:10;;;;;;;2.90;2.50;;;18.90;99.90;;;24.39;43.24;95873.00;2259637;55;33385;-57
2021/10/24 09:00:55;;;;;;;3.00;2.58;;;18.10;99.90;;;22.94;43.85;95875.00;2278035;55;32214;-57
2021/10/24 09:06:49;;;;;;;3.03;2.40;;;17.40;99.90;;;23.03;45.14;95879.00;2254196;56;33553;-57
2021/10/24 09:09:37;;;;;;;2.75;2.50;;;17.60;99.90;;;22.24;44.62;95884.00;2485950;55;26662;-56
2021/10/24 09:15:21;;;;;;;3.30;2.67;;;17.70;99.90;;;22.24;43.05;95881.00;2238086;56;34538;-56
2021/10/24 09:18:11;;;;;;;2.55;2.30;;;17.20;99.90;;;22.05;42.95;95879.00;2237772;56;26202;-56
2021/10/24 09:21:18;;;;;;;2.83;2.50;;;17.50;99.90;;;22.73;45.91;95871.00;2257449;55;26145;-56
2021/10/24 09:24:13;;;;;;;3.33;2.10;;;17.80;99.90;;;22.04;41.85;95883.00;2264208;55;26593;-57
2021/10/24 09:30:10;;;;;;;3.15;2.65;;;17.40;99.90;;;21.93;42.78;95881.00;2250711;54;33949;-56
2021/10/24 09:33:00;;;;;;;2.45;2.25;;;16.70;99.90;;;20.83;45.22;95881.00;2463487;55;26115;-57
2021/10/24 09:38:47;;;;;;;3.60;1.90;;;18.20;99.90;;;24.52;37.35;95880.00;2329286;54;33044;-57
2021/10/24 09:41:34;;;;;;;2.95;2.47;;;19.00;99.90;;;24.40;38.64;95876.00;2322108;54;25218;-57
2021/10/24 09:44:22;;;;;;;2.87;2.10;;;19.90;99.90;;;25.62;38.63;95875.00;2340097;54;25052;-57
2021/10/24 09:47:08;;;;;;;4.28;2.03;;;20.30;99.90;;;26.24;35.87;95875.00;2334536;54;25484;-56
2021/10/24 09:49:55;;;;;;;2.40;2.00;;;21.00;99.90;;;26.52;34.71;95870.00;2556934;53;25067;-57
2021/10/24 09:52:41;;;;;;;2.30;2.10;;;20.80;99.90;;;26.89;37.71;95867.00;2334637;54;25104;-57
2021/10/24 09:55:27;;;;;;;3.45;2.25;;;21.70;99.90;;;27.69;36.43;95870.00;2561738;53;25584;-57
2021/10/24 09:58:15;;;;;;;2.20;2.00;;;21.90;99.90;;;27.81;32.58;95862.00;2341044;54;25116;-54
2021/10/24 10:01:03;;;;;;;2.45;2.10;;;21.30;99.90;;;27.20;32.39;95872.00;2341622;54;25119;-54
2021/10/24 10:03:50;;;;;;;2.75;2.33;;;20.80;99.90;;;26.74;31.08;95871.00;2553066;54;26165;-54
2021/10/24 10:06:37;;;;;;;2.08;1.83;;;21.00;99.90;;;27.41;34.97;95862.00;2313392;54;25630;-54
2021/10/24 10:09:24;;;;;;;2.37;1.75;;;21.70;99.90;;;27.73;29.75;95857.00;2312733;54;25152;-54
2021/10/24 10:12:17;;;;;;;2.92;2.00;;;21.90;99.90;;;28.17;31.78;95854.00;2314856;55;25096;-54
2021/10/24 10:15:06;;;;;;;2.22;2.00;;;23.00;99.90;;;29.35;30.64;95851.00;2314970;54;25488;-54
2021/10/24 10:18:02;;;;;;;2.75;1.95;;;23.40;99.90;;;30.29;30.06;95850.00;2554189;54;26559;-54
2021/10/24 10:20:55;;;;;;;4.12;2.20;;;23.80;99.90;;;30.08;25.60;95848.00;2315018;55;25143;-54
2021/10/24 10:23:42;;;;;;;2.10;1.70;;;23.60;99.90;;;29.91;28.04;95841.00;2553799;54;25140;-55
2021/10/24 10:26:39;;;;;;;2.53;1.77;;;23.20;99.90;;;29.56;29.89;95835.00;2314903;55;25107;-54
2021/10/24 10:29:52;;;;;;;3.08;1.95;;;23.00;99.90;;;29.34;27.77;95835.00;2554272;54;25068;-54
2021/10/24 10:32:40;;;;;;;3.08;1.90;;;23.00;99.90;;;29.62;29.38;95834.00;2314798;55;25115;-55
2021/10/24 10:35:27;;;;;;;2.30;1.90;;;22.90;99.90;;;29.44;28.86;95833.00;2314816;54;25076;-55
2021/10/24 10:41:35;;;;;;;2.58;1.90;;;22.60;99.90;;;29.85;26.25;95831.00;2254237;56;32293;-57
2021/10/24 10:44:22;;;;;;;2.97;1.92;;;22.70;99.90;;;29.32;26.38;95829.00;2469914;55;25073;-56
2021/10/24 10:47:50;;;;;;;2.00;1.80;;;22.10;99.90;;;28.25;27.77;95833.00;2235296;57;25164;-56
2021/10/24 10:50:48;;;;;;;2.58;1.90;;;20.20;99.90;;;24.06;32.55;95826.00;2255030;56;25105;-56
2021/10/24 10:54:09;;;;;;;3.25;1.73;;;19.60;99.90;;;23.59;36.08;95825.00;2488335;55;25073;-55
2021/10/24 10:56:56;;;;;;;2.80;1.70;;;17.60;99.90;;;19.83;40.12;95827.00;2260815;56;26110;-56
2021/10/24 10:59:42;;;;;;;2.90;1.70;;;16.10;99.90;;;17.70;47.45;95835.00;2488756;55;26155;-55
2021/10/24 11:02:34;;;;;;;2.40;1.90;;;15.20;99.90;;;16.73;55.36;95831.00;2264704;55;26137;-55
2021/10/24 11:05:35;;;;;;;2.53;1.95;;;14.90;99.90;;;16.70;61.17;95827.00;2490954;55;26073;-55
2021/10/24 11:08:49;;;;;;;3.22;1.95;;;14.70;99.90;;;16.45;64.79;95827.00;2262371;55;26153;-56
2021/10/24 11:15:19;;;;;;;3.12;1.75;;;14.20;99.90;;;15.24;68.14;95831.00;2206733;55;33229;-55
2021/10/24 11:18:28;;;;;;;4.37;2.08;;;13.50;99.90;;;14.59;81.08;95829.00;2195529;57;26592;-56
2021/10/24 11:21:27;;;;;;;2.47;1.75;;;13.30;99.90;;;14.88;83.40;95826.00;2216790;56;26196;-58
2021/10/24 11:24:13;;;;;;;3.12;1.98;;;13.50;99.90;;;15.39;77.38;95828.00;2434415;55;26180;-55
2021/10/24 11:27:01;;;;;;;2.50;2.00;;;13.60;99.90;;;15.32;81.45;95816.00;2216484;56;26602;-55
2021/10/24 11:29:52;;;;;;;3.20;1.92;;;13.60;99.90;;;14.91;82.97;95820.00;2435081;55;26135;-55
2021/10/24 11:32:40;;;;;;;2.65;1.67;;;13.60;99.90;;;15.28;78.48;95812.00;2215926;56;26285;-55
2021/10/24 11:35:27;;;;;;;2.45;1.77;;;13.70;99.90;;;15.23;78.13;95807.00;2434203;55;26582;-56
2021/10/24 11:38:15;;;;;;;3.25;2.00;;;13.70;99.90;;;15.02;75.81;95813.00;2215865;56;26124;-55
2021/10/24 11:41:02;;;;;;;2.28;1.90;;;13.40;99.90;;;14.69;82.91;95808.00;2435361;55;26171;-56
2021/10/24 11:43:49;;;;;;;2.08;1.50;;;13.60;99.90;;;14.98;78.95;95808.00;2214501;56;26222;-55
2021/10/24 11:46:36;;;;;;;2.10;1.37;;;14.00;99.90;;;15.64;79.30;95803.00;2434786;55;26725;-55
2021/10/24 11:49:22;;;;;;;1.60;1.50;;;14.70;99.90;;;17.10;69.72;95800.00;2215833;56;26111;-56
2021/10/24 11:52:09;;;;;;;1.85;1.60;;;15.60;99.90;;;18.46;60.04;95796.00;2435082;55;26638;-56
2021/10/24 11:55:09;;;;;;;1.98;1.40;;;16.70;99.90;;;20.23;52.70;95787.00;2216368;56;26127;-56
2021/10/24 11:58:05;;;;;;;2.10;1.50;;;17.80;99.90;;;21.32;45.40;95791.00;2215908;56;26629;-56
2021/10/24 12:01:06;;;;;;;2.58;1.60;;;18.60;99.90;;;22.49;45.52;95788.00;2435150;55;26163;-55
2021/10/24 12:03:58;;;;;;;2.00;1.65;;;19.20;99.90;;;23.15;42.82;95778.00;2405802;55;26143;-56
2021/10/24 12:09:51;;;;;;;2.20;1.52;;;18.60;99.90;;;20.90;44.77;95781.00;2236805;56;33778;-55
2021/10/24 12:12:38;;;;;;;1.77;1.50;;;18.20;99.90;;;20.62;44.56;95779.00;2449869;55;26178;-56
2021/10/24 12:18:34;;;;;;;2.30;1.60;;;19.60;99.90;;;22.86;42.85;95768.00;2246854;56;33407;-56
2021/10/24 12:21:26;;;;;;;2.03;1.50;;;20.20;99.90;;;22.98;41.19;95773.00;2428379;56;26193;-56
2021/10/24 12:24:19;;;;;;;1.73;1.20;;;20.60;99.90;;;22.95;41.45;95767.00;2228659;55;26113;-56
2021/10/24 12:27:16;;;;;;;2.53;1.60;;;19.90;99.90;;;21.80;40.81;95772.00;2444057;55;26646;-56
2021/10/24 12:30:08;;;;;;;1.58;1.30;;;19.00;99.90;;;20.98;41.83;95765.00;2212657;56;26122;-56
2021/10/24 12:33:00;;;;;;;2.75;1.58;;;18.20;99.90;;;19.40;43.99;95775.00;2226738;55;26166;-55
2021/10/24 12:35:48;;;;;;;1.70;1.40;;;16.90;99.90;;;17.19;49.10;95778.00;2428804;56;26177;-55
2021/10/24 12:38:49;;;;;;;2.92;1.42;;;16.20;99.90;;;17.18;53.99;95774.00;2257075;55;26190;-56
2021/10/24 12:41:38;;;;;;;2.00;1.50;;;16.30;99.90;;;17.18;51.60;95767.00;2471676;55;26242;-56
2021/10/24 12:44:37;;;;;;;3.03;1.52;;;16.30;99.90;;;17.29;51.89;95760.00;2227083;57;26578;-55
2021/10/24 12:47:23;;;;;;;1.27;1.17;;;16.50;99.90;;;17.47;56.10;95759.00;2239743;57;26558;-55
2021/10/24 12:50:09;;;;;;;1.80;1.40;;;16.50;99.90;;;17.74;51.43;95757.00;2490390;55;26573;-55